Aérodrome :
LOGIN :

S'inscrire | Disclaimer

   EN    FR    IT 

 










Légende :    VFR   VFR Marginal   IFR   IFR Intensif   IFR Très Intensif
Visi : 
Plafond : 
>= 8 km
>= 3000ft
5 à 8 km
1000 à 3000 ft
1500m à 5 km
500 à 1000 ft
800 à 1500m
200 à 500 ft
< 800m
< 200 ft
Symboles :   Orages  Brouillard  Fortes neiges  Fortes précipitations  Vent > 20 kt
SIGMETs :   Divers  Orages  Givrage  Turbulence  Onde Orograph.  Cendres Volcan.







- Altitude de l'aérodrome : 52 ft
- Code IATA : IOM
- Voir les cartes d'approche


EGNS - Isle of Man

DERNIER METAR :
  • 152020Z 22007KT 190V260 6000 -RADZ FEW003 SCT015 OVC023 15/15 Q1013 TEMPO 4000 RADZ BKN004

METARs EXPIRÉS :
  • 151950Z 21009KT 3500 -RADZ BKN002 BKN012 OVC017 15/15 Q1013 TEMPO RADZ
  • 151920Z 21009KT 170V250 4000 -RADZ FEW003 SCT009 BKN012 15/15 Q1013 TEMPO 2000 RADZ BKN003
  • 151850Z 21008KT 180V240 5000 -RADZ SCT003 BKN012 OVC017 15/15 Q1013 TEMPO 4000 RADZ BKN003
  • 151820Z 21008KT 3500 -RADZ SCT003 BKN011 OVC015 15/15 Q1013 TEMPO RADZ BKN003
  • 151750Z 21007KT 170V240 7000 -RADZ FEW004 BKN012 OVC017 15/15 Q1013 TEMPO 4000 RADZ BKN004

TAF TAF EGNS
Valide du 15 à 18h jusqu'au 15 à 21h UTC


151700Z 1518/1521 20012KT 7000 FEW002 SCT004 BKN020
TEMPO 1518/1521 3000 -RADZ SCT002 BKN004
PROB40
TEMPO 1518/1521 1200 RADZ BR BKN001
Pas de NOTAMs connus pour ce terrain.



MET'MAP, la Météo Aéronautique d'un coup d'oeil ! - Copyright ORBIFLY Décembre 2007 - Disclaimer

ORBIFLY MET'MAP TEAM :

Programmation & Développement : Alexandra Zaïnal
Conception & Développement : Baudouin d'Aumeries
Co-Programmation & Développement : Marc-Olivier Méhu
Soutien technique & logistique : Manuel Goepfert

Contact : metmap@orbifly.com




SOURCES & CREDITS :

   NOAA